createdAt,value
2024-05-09T00:01:15.313Z,101330.63
2024-05-09T00:03:46.935Z,101334.00
2024-05-09T00:06:17.064Z,101326.88
2024-05-09T00:08:47.187Z,101326.75
2024-05-09T00:11:20.542Z,101320.38
2024-05-09T00:13:51.000Z,101322.00
2024-05-09T00:16:21.279Z,101321.84
2024-05-09T00:18:51.776Z,101326.16
2024-05-09T00:21:21.977Z,101326.94
2024-05-09T00:23:52.150Z,101328.63
2024-05-09T00:26:24.884Z,101325.81
2024-05-09T00:28:55.144Z,101329.25
2024-05-09T00:31:27.663Z,101324.75
2024-05-09T00:33:58.040Z,101322.91
2024-05-09T00:36:28.279Z,101314.88
2024-05-09T00:38:58.320Z,101313.03
2024-05-09T00:41:30.991Z,101316.38
2024-05-09T00:44:01.166Z,101314.56
2024-05-09T00:46:31.240Z,101310.06
2024-05-09T00:49:01.665Z,101315.25
2024-05-09T00:51:32.336Z,101314.22
2024-05-09T00:54:02.508Z,101306.28
2024-05-09T00:56:38.024Z,101302.59
2024-05-09T00:59:08.185Z,101312.13
2024-05-09T01:01:38.573Z,101313.75
2024-05-09T01:04:09.772Z,101308.41
2024-05-09T01:06:39.930Z,101310.94
2024-05-09T01:09:09.939Z,101318.63
2024-05-09T01:11:43.895Z,101321.13
2024-05-09T01:14:14.223Z,101313.13
2024-05-09T01:16:45.073Z,101314.78
2024-05-09T01:19:23.102Z,101308.56
2024-05-09T01:21:53.280Z,101307.63
2024-05-09T01:24:25.931Z,101305.75
2024-05-09T01:26:56.112Z,101310.97
2024-05-09T01:29:26.209Z,101312.66
2024-05-09T01:31:59.113Z,101309.03
2024-05-09T01:34:29.360Z,101313.28
2024-05-09T01:36:59.445Z,101307.97
2024-05-09T01:39:32.079Z,101304.41
2024-05-09T01:42:02.110Z,101303.38
2024-05-09T01:44:32.101Z,101298.88
2024-05-09T01:47:02.348Z,101293.44
2024-05-09T01:49:32.677Z,101288.94
2024-05-09T01:52:02.823Z,101292.38
2024-05-09T01:54:35.491Z,101295.84
2024-05-09T01:57:05.568Z,101298.38
2024-05-09T01:59:35.973Z,101293.09
2024-05-09T02:02:06.289Z,101292.13
2024-05-09T02:04:36.749Z,101295.56
2024-05-09T02:07:08.039Z,101286.75
2024-05-09T02:09:40.779Z,101290.19
2024-05-09T02:12:11.173Z,101289.22
2024-05-09T02:15:31.108Z,101286.59
2024-05-09T02:18:01.443Z,101283.84
2024-05-09T02:24:46.469Z,101287.25
2024-05-09T02:31:22.819Z,101284.53
2024-05-09T02:33:53.081Z,101280.16
2024-05-09T02:36:23.325Z,101285.47
2024-05-09T02:38:50.881Z,101287.25
2024-05-09T02:41:23.526Z,101287.31
2024-05-09T02:43:50.956Z,101282.13
2024-05-09T02:46:21.044Z,101283.03
2024-05-09T02:48:48.587Z,101278.69
2024-05-09T02:51:18.673Z,101281.34
2024-05-09T02:53:46.328Z,101282.28
2024-05-09T02:56:16.548Z,101281.44
2024-05-09T02:58:46.643Z,101285.84
2024-05-09T03:01:16.806Z,101284.19
2024-05-09T03:03:45.286Z,101282.53
2024-05-09T03:06:15.449Z,101277.28
2024-05-09T03:08:45.521Z,101281.75
2024-05-09T03:11:23.728Z,101279.97
2024-05-09T03:13:54.805Z,101268.63
2024-05-09T03:16:24.861Z,101277.47
2024-05-09T03:18:52.604Z,101273.97
2024-05-09T03:21:22.695Z,101273.19
2024-05-09T03:23:50.243Z,101268.88
2024-05-09T03:26:21.563Z,101268.88
2024-05-09T03:28:49.077Z,101273.31
2024-05-09T03:31:21.812Z,101263.78
2024-05-09T03:33:49.447Z,101262.94
2024-05-09T03:36:19.987Z,101266.53
2024-05-09T03:38:51.311Z,101280.59
2024-05-09T03:41:22.752Z,101267.53
2024-05-09T03:43:53.066Z,101267.59
2024-05-09T03:46:23.162Z,101271.97
2024-05-09T03:48:53.367Z,101269.47
2024-05-09T03:51:20.920Z,101259.84
2024-05-09T03:53:50.998Z,101265.09
2024-05-09T03:56:18.690Z,101267.69
2024-05-09T03:58:48.760Z,101270.16
2024-05-09T04:01:16.978Z,101266.66
2024-05-09T04:03:49.852Z,101263.06
2024-05-09T04:06:21.380Z,101263.91
2024-05-09T04:08:51.600Z,101274.47
2024-05-09T04:11:19.395Z,101270.00
2024-05-09T04:13:49.431Z,101272.63
2024-05-09T04:16:17.003Z,101270.81
2024-05-09T04:18:49.839Z,101272.47
2024-05-09T04:21:18.796Z,101274.19
2024-05-09T04:23:49.062Z,101275.94
2024-05-09T04:26:16.723Z,101272.47
2024-05-09T04:28:46.841Z,101284.69
2024-05-09T04:31:15.016Z,101277.66
2024-05-09T04:33:45.137Z,101280.28
2024-05-09T04:36:15.334Z,101278.44
2024-05-09T04:38:45.421Z,101276.63
2024-05-09T04:41:12.912Z,101276.50
2024-05-09T04:43:42.986Z,101278.28
2024-05-09T04:46:10.373Z,101285.22
2024-05-09T04:48:40.472Z,101283.41
2024-05-09T04:51:08.052Z,101287.75
2024-05-09T04:53:40.990Z,101284.25
2024-05-09T04:56:08.994Z,101284.19
2024-05-09T04:58:40.659Z,101282.41
2024-05-09T05:01:08.121Z,101288.53
2024-05-09T05:03:38.753Z,101288.53
2024-05-09T05:06:06.468Z,101283.28
2024-05-09T05:08:37.942Z,101286.75
2024-05-09T05:11:08.343Z,101279.69
2024-05-09T05:13:41.452Z,101296.31
2024-05-09T05:16:09.277Z,101288.53
2024-05-09T05:18:39.720Z,101300.78
2024-05-09T05:21:07.162Z,101299.16
2024-05-09T05:23:37.391Z,101300.94
2024-05-09T05:26:08.440Z,101296.72
2024-05-09T05:28:38.602Z,101296.84
2024-05-09T05:31:06.341Z,101297.88
2024-05-09T05:33:36.433Z,101294.53
2024-05-09T05:36:04.397Z,101295.56
2024-05-09T05:38:34.572Z,101290.53
2024-05-09T05:41:02.098Z,101297.69
2024-05-09T05:43:35.092Z,101287.34
2024-05-09T05:46:02.471Z,101297.13
2024-05-09T05:48:32.582Z,101293.81
2024-05-09T05:51:02.663Z,101291.38
2024-05-09T05:53:34.634Z,101298.59
2024-05-09T05:56:02.251Z,101310.16
2024-05-09T05:58:34.834Z,101295.41
2024-05-09T06:01:02.601Z,101305.22
2024-05-09T06:03:32.984Z,101310.66
2024-05-09T06:06:03.285Z,101316.13
2024-05-09T06:08:33.636Z,101311.03
2024-05-09T06:11:01.373Z,101310.34
2024-05-09T06:13:31.393Z,101312.31
2024-05-09T06:16:02.387Z,101315.13
2024-05-09T06:18:32.636Z,101310.06
2024-05-09T06:21:00.259Z,101310.28
2024-05-09T06:23:30.491Z,101306.06
2024-05-09T06:25:58.147Z,101308.84
2024-05-09T06:28:29.016Z,101307.28
2024-05-09T06:30:56.500Z,101313.63
2024-05-09T06:33:29.333Z,101311.97
2024-05-09T06:35:59.403Z,101306.91
2024-05-09T06:38:29.439Z,101299.22
2024-05-09T06:40:57.060Z,101311.72
2024-05-09T06:43:27.209Z,101317.13
2024-05-09T06:45:54.672Z,101310.34
2024-05-09T06:48:25.594Z,101314.84
2024-05-09T06:50:55.800Z,101315.91
2024-05-09T06:53:26.380Z,101307.28
2024-05-09T06:55:54.030Z,101312.78
2024-05-09T06:58:24.307Z,101313.84
2024-05-09T07:00:51.991Z,101316.63
2024-05-09T07:03:22.319Z,101317.75
2024-05-09T07:05:50.111Z,101320.56
2024-05-09T07:08:22.889Z,101315.47
2024-05-09T07:10:56.555Z,101320.91
2024-05-09T07:13:26.791Z,101321.91
2024-05-09T07:15:54.314Z,101330.84
2024-05-09T07:18:24.888Z,101333.63
2024-05-09T07:20:52.613Z,101319.75
2024-05-09T07:23:25.361Z,101319.03
2024-05-09T07:25:53.198Z,101318.25
2024-05-09T07:28:24.755Z,101328.88
2024-05-09T07:30:52.396Z,101322.00
2024-05-09T07:33:24.620Z,101313.31
2024-05-09T07:35:53.159Z,101313.47
2024-05-09T07:38:26.328Z,101314.50
2024-05-09T07:40:53.829Z,101317.28
2024-05-09T07:43:23.824Z,101312.13
2024-05-09T07:45:54.899Z,101324.56
2024-05-09T07:50:00.259Z,101317.72
2024-05-09T07:53:53.441Z,101322.41
2024-05-09T07:56:24.400Z,101319.94
2024-05-09T07:58:56.477Z,101316.56
2024-05-09T08:01:26.449Z,101324.63
2024-05-09T08:03:57.537Z,101327.41
2024-05-09T08:06:25.524Z,101313.47
2024-05-09T08:09:02.775Z,101315.38
2024-05-09T08:11:35.718Z,101313.78
2024-05-09T08:14:03.311Z,101314.84
2024-05-09T08:16:33.292Z,101306.22
2024-05-09T08:19:01.623Z,101308.13
2024-05-09T08:21:32.266Z,101306.53
2024-05-09T08:24:02.466Z,101304.03
2024-05-09T08:26:32.549Z,101302.41
2024-05-09T08:28:59.975Z,101304.31
2024-05-09T08:31:30.368Z,101301.81
2024-05-09T08:33:58.206Z,101311.69
2024-05-09T08:36:29.526Z,101308.31
2024-05-09T08:38:57.006Z,101308.44
2024-05-09T08:41:32.534Z,101299.78
2024-05-09T08:44:00.171Z,101298.16
2024-05-09T08:46:33.316Z,101300.94
2024-05-09T08:49:03.830Z,101291.34
2024-05-09T08:51:34.379Z,101287.94
2024-05-09T08:54:01.906Z,101293.28
2024-05-09T08:56:37.392Z,101298.72
2024-05-09T08:59:09.273Z,101294.44
2024-05-09T09:01:41.608Z,101287.53
2024-05-09T09:04:11.021Z,101295.66
2024-05-09T09:06:42.419Z,101292.25
2024-05-09T09:09:10.599Z,101297.66
2024-05-09T09:11:43.226Z,101296.03
2024-05-09T09:14:11.196Z,101297.91
2024-05-09T09:16:41.352Z,101301.53
2024-05-09T09:19:08.907Z,101296.38
2024-05-09T09:21:39.052Z,101291.19
2024-05-09T09:24:09.940Z,101286.91
2024-05-09T09:26:43.557Z,101292.28
2024-05-09T09:29:11.422Z,101292.41
2024-05-09T09:31:42.185Z,101282.81
2024-05-09T09:34:09.966Z,101289.09
2024-05-09T09:36:44.902Z,101283.00
2024-05-09T09:39:17.473Z,101291.94
2024-05-09T09:41:51.375Z,101288.56
2024-05-09T09:44:21.989Z,101291.31
2024-05-09T09:46:53.103Z,101282.59
2024-05-09T09:49:20.709Z,101285.34
2024-05-09T09:51:52.377Z,101274.00
2024-05-09T09:54:20.791Z,101272.31
2024-05-09T09:56:54.786Z,101268.94
2024-05-09T09:59:23.043Z,101278.84
2024-05-09T10:01:53.242Z,101275.53
2024-05-09T10:04:21.160Z,101261.56
2024-05-09T10:06:55.370Z,101263.44
2024-05-09T10:09:23.553Z,101262.66
2024-05-09T10:12:00.251Z,101265.34
2024-05-09T10:14:30.883Z,101265.44
2024-05-09T10:17:07.739Z,101262.81
2024-05-09T10:19:35.391Z,101259.34
2024-05-09T10:22:06.004Z,101260.22
2024-05-09T10:24:48.150Z,101251.41
2024-05-09T10:27:29.651Z,101249.69
2024-05-09T10:29:58.425Z,101246.19
2024-05-09T10:32:32.589Z,101237.41
2024-05-09T10:35:00.962Z,101249.88
2024-05-09T10:37:31.425Z,101249.06
2024-05-09T10:40:00.528Z,101237.66
2024-05-09T10:42:33.862Z,101234.25
2024-05-09T10:45:03.026Z,101231.72
2024-05-09T10:47:33.189Z,101230.03
2024-05-09T10:50:01.349Z,101228.31
2024-05-09T10:52:31.833Z,101225.75
2024-05-09T10:55:00.411Z,101225.81
2024-05-09T10:57:41.945Z,101225.09
2024-05-09T11:00:15.960Z,101218.13
2024-05-09T11:02:53.347Z,101219.13
2024-05-09T11:05:22.981Z,101212.16
2024-05-09T11:07:53.468Z,101209.59
2024-05-09T11:10:27.654Z,101215.84
2024-05-09T11:13:06.956Z,101216.84
2024-05-09T11:15:40.832Z,101214.31
2024-05-09T11:18:11.942Z,101200.25
2024-05-09T11:20:39.566Z,101206.53
2024-05-09T11:23:13.428Z,101200.41
2024-05-09T11:25:40.898Z,101203.97
2024-05-09T11:28:15.913Z,101195.13
2024-05-09T11:30:43.417Z,101189.84
2024-05-09T11:33:14.434Z,101188.97
2024-05-09T11:35:42.349Z,101199.53
2024-05-09T11:38:12.412Z,101199.50
2024-05-09T11:40:43.345Z,101195.09
2024-05-09T11:43:13.731Z,101182.69
2024-05-09T11:45:43.824Z,101184.44
2024-05-09T11:48:11.604Z,101178.22
2024-05-09T11:50:42.241Z,101177.31
2024-05-09T11:53:09.835Z,101171.13
2024-05-09T11:55:40.188Z,101175.56
2024-05-09T11:58:08.352Z,101171.16
2024-05-09T12:00:41.214Z,101169.41
2024-05-09T12:03:08.755Z,101159.72
2024-05-09T12:05:38.900Z,101160.63
2024-05-09T12:08:07.338Z,101163.31
2024-05-09T12:10:37.682Z,101161.59
2024-05-09T12:13:06.954Z,101158.97
2024-05-09T12:15:41.064Z,101149.28
2024-05-09T12:18:08.759Z,101156.41
2024-05-09T12:20:40.092Z,101145.81
2024-05-09T12:23:10.226Z,101146.75
2024-05-09T12:25:41.745Z,101147.69
2024-05-09T12:28:09.671Z,101143.34
2024-05-09T12:30:42.380Z,101139.88
2024-05-09T12:33:12.112Z,101139.06
2024-05-09T12:35:45.706Z,101140.03
2024-05-09T12:38:14.904Z,101134.81
2024-05-09T12:40:45.857Z,101128.72
2024-05-09T12:43:13.285Z,101127.00
2024-05-09T12:45:46.791Z,101131.50
2024-05-09T12:48:14.676Z,101122.75
2024-05-09T12:50:44.969Z,101127.25
2024-05-09T12:53:12.711Z,101116.66
2024-05-09T12:55:48.938Z,101114.94
2024-05-09T12:58:24.716Z,101110.56
2024-05-09T13:00:57.682Z,101107.06
2024-05-09T13:03:25.366Z,101111.53
2024-05-09T13:05:56.175Z,101111.56
2024-05-09T13:08:23.984Z,101100.94
2024-05-09T13:10:54.332Z,101104.47
2024-05-09T13:13:22.026Z,101097.44
2024-05-09T13:15:52.247Z,101092.13
2024-05-09T13:18:22.490Z,101086.84
2024-05-09T13:20:52.505Z,101094.81
2024-05-09T13:23:20.023Z,101083.28
2024-05-09T13:25:50.309Z,101087.72
2024-05-09T13:28:18.118Z,101084.16
2024-05-09T13:30:48.301Z,101080.63
2024-05-09T13:33:18.551Z,101085.06
2024-05-09T13:35:50.731Z,101081.50
2024-05-09T13:38:22.366Z,101080.66
2024-05-09T13:40:50.700Z,101079.75
2024-05-09T13:43:22.010Z,101077.91
2024-05-09T13:45:50.158Z,101073.47
2024-05-09T13:48:20.591Z,101077.91
2024-05-09T13:50:50.931Z,101079.69
2024-05-09T13:53:21.156Z,101077.91
2024-05-09T13:55:48.947Z,101074.34
2024-05-09T13:58:19.622Z,101065.47
2024-05-09T14:00:49.038Z,101067.25
2024-05-09T14:03:21.198Z,101067.25
2024-05-09T14:05:54.384Z,101063.69
2024-05-09T14:08:25.535Z,101058.34
2024-05-09T14:10:54.713Z,101061.00
2024-05-09T14:13:24.913Z,101049.44
2024-05-09T14:15:52.601Z,101053.00
2024-05-09T14:18:22.909Z,101052.09
2024-05-09T14:20:53.171Z,101041.44
2024-05-09T14:23:23.268Z,101044.09
2024-05-09T14:25:52.972Z,101048.53
2024-05-09T14:28:24.620Z,101036.97
2024-05-09T14:30:52.838Z,101036.03
2024-05-09T14:33:26.485Z,101038.69
2024-05-09T14:35:57.269Z,101030.69
2024-05-09T14:38:27.636Z,101033.31
2024-05-09T14:40:55.427Z,101030.66
2024-05-09T14:43:25.935Z,101024.41
2024-05-09T14:45:53.727Z,101015.50
2024-05-09T14:48:24.041Z,101011.94
2024-05-09T14:50:52.079Z,101017.22
2024-05-09T14:53:26.736Z,101009.25
2024-05-09T14:55:54.598Z,101010.94
2024-05-09T14:58:25.269Z,101013.59
2024-05-09T15:00:53.132Z,101009.09
2024-05-09T15:03:23.508Z,101009.09
2024-05-09T15:05:51.970Z,101001.13
2024-05-09T15:08:25.187Z,101006.50
2024-05-09T15:10:53.311Z,101010.06
2024-05-09T15:13:24.483Z,101001.19
2024-05-09T15:15:52.271Z,100996.75
2024-05-09T15:18:22.646Z,100992.34
2024-05-09T15:20:50.397Z,100996.75
2024-05-09T15:23:20.693Z,100990.53
2024-05-09T15:25:51.084Z,100995.88
2024-05-09T15:28:22.386Z,100986.09
2024-05-09T15:30:50.088Z,100980.75
2024-05-09T15:33:20.539Z,100990.53
2024-05-09T15:35:48.264Z,100986.97
2024-05-09T15:38:18.868Z,100982.47
2024-05-09T15:40:46.535Z,100985.13
2024-05-09T15:43:19.480Z,100973.56
2024-05-09T15:45:47.161Z,100970.00
2024-05-09T15:48:17.481Z,100970.91
2024-05-09T15:50:45.147Z,100972.66
2024-05-09T15:53:15.795Z,100968.19
2024-05-09T15:55:43.753Z,100965.53
2024-05-09T15:58:14.200Z,100970.91
2024-05-09T16:00:46.386Z,100971.81
2024-05-09T16:03:19.549Z,100968.25
2024-05-09T16:05:48.180Z,100967.38
2024-05-09T16:08:19.196Z,100961.19
2024-05-09T16:10:48.282Z,100961.22
2024-05-09T16:13:19.792Z,100969.25
2024-05-09T16:15:50.599Z,100967.47
2024-05-09T16:18:21.443Z,100971.03
2024-05-09T16:20:50.280Z,100961.28
2024-05-09T16:23:20.567Z,100963.97
2024-05-09T16:25:48.599Z,100960.44
2024-05-09T16:28:20.212Z,100960.47
2024-05-09T16:30:51.459Z,100965.78
2024-05-09T16:33:23.879Z,100960.50
2024-05-09T16:35:51.730Z,100972.06
2024-05-09T16:38:22.044Z,100962.28
2024-05-09T16:40:49.785Z,100957.03
2024-05-09T16:43:20.165Z,100959.69
2024-05-09T16:45:47.762Z,100954.38
2024-05-09T16:48:20.642Z,100962.38
2024-05-09T16:50:49.525Z,100947.28
2024-05-09T16:53:19.544Z,100958.88
2024-05-09T16:55:46.982Z,100942.88
2024-05-09T16:58:17.181Z,100949.13
2024-05-09T17:00:44.816Z,100942.94
2024-05-09T17:03:16.703Z,100938.50
2024-05-09T17:05:47.935Z,100946.50
2024-05-09T17:08:19.798Z,100945.59
2024-05-09T17:10:48.911Z,100948.25
2024-05-09T17:13:20.079Z,100949.16
2024-05-09T17:15:50.810Z,100943.84
2024-05-09T17:18:21.290Z,100950.06
2024-05-09T17:20:54.029Z,100944.75
2024-05-09T17:23:21.656Z,100943.88
2024-05-09T17:25:51.695Z,100947.41
2024-05-09T17:28:19.530Z,100948.28
2024-05-09T17:30:49.834Z,100943.84
2024-05-09T17:33:17.608Z,100942.97
2024-05-09T17:35:50.758Z,100939.44
2024-05-09T17:38:23.283Z,100946.53
2024-05-09T17:40:55.489Z,100942.97
2024-05-09T17:43:23.249Z,100935.00
2024-05-09T17:45:53.324Z,100932.31
2024-05-09T17:48:20.906Z,100931.44
2024-05-09T17:50:51.377Z,100934.13
2024-05-09T17:53:21.556Z,100928.81
2024-05-09T17:55:53.790Z,100929.72
2024-05-09T17:58:21.750Z,100931.47
2024-05-09T18:00:51.984Z,100927.03
2024-05-09T18:03:19.947Z,100928.84
2024-05-09T18:05:49.998Z,100927.06
2024-05-09T18:08:17.532Z,100928.84
2024-05-09T18:10:51.436Z,100934.19
2024-05-09T18:13:19.492Z,100935.06
2024-05-09T18:15:49.774Z,100938.63
2024-05-09T18:18:17.349Z,100935.97
2024-05-09T18:20:47.565Z,100943.09
2024-05-09T18:23:17.092Z,100943.09
2024-05-09T18:25:54.589Z,100941.34
2024-05-09T18:28:23.237Z,100936.00
2024-05-09T18:30:53.335Z,100940.47
2024-05-09T18:33:20.801Z,100934.25
2024-05-09T18:35:50.930Z,100944.91
2024-05-09T18:38:25.481Z,100949.31
2024-05-09T18:40:55.873Z,100948.44
2024-05-09T18:43:31.193Z,100949.28
2024-05-09T18:46:05.742Z,100956.41
2024-05-09T18:48:36.029Z,100961.72
2024-05-09T18:51:05.102Z,100956.34
2024-05-09T18:53:35.088Z,100952.81
2024-05-09T18:56:05.815Z,100958.09
2024-05-09T18:58:35.964Z,100962.53
2024-05-09T19:01:06.386Z,100960.72
2024-05-09T19:03:36.775Z,100966.00
2024-05-09T19:06:04.964Z,100966.84
2024-05-09T19:08:35.041Z,100972.97
2024-05-09T19:11:05.627Z,100970.28
2024-05-09T19:13:35.899Z,100976.47
2024-05-09T19:16:03.657Z,100968.47
2024-05-09T19:18:34.088Z,100969.28
2024-05-09T19:21:01.704Z,100974.53
2024-05-09T19:23:35.340Z,100978.03
2024-05-09T19:26:08.511Z,100972.66
2024-05-09T19:28:40.399Z,100979.69
2024-05-09T19:31:07.807Z,100979.63
2024-05-09T19:33:38.898Z,100978.66
2024-05-09T19:36:07.994Z,100977.72
2024-05-09T19:38:38.597Z,100988.25
2024-05-09T19:41:08.657Z,100982.91
2024-05-09T19:43:38.828Z,100983.72
2024-05-09T19:46:06.362Z,100991.66
2024-05-09T19:48:36.660Z,100988.09
2024-05-09T19:51:04.504Z,100985.34
2024-05-09T19:53:34.563Z,100987.94
2024-05-09T19:56:02.106Z,100985.25
2024-05-09T19:58:34.788Z,100986.03
2024-05-09T20:01:04.914Z,100990.41
2024-05-09T20:03:36.797Z,100988.59
2024-05-09T20:06:07.616Z,101000.00
2024-05-09T20:08:35.033Z,100998.19
2024-05-09T20:11:05.184Z,100996.38
2024-05-09T20:13:35.196Z,100993.69
2024-05-09T20:16:05.141Z,101001.53
2024-05-09T20:18:32.709Z,100996.16
2024-05-09T20:21:03.016Z,100997.88
2024-05-09T20:23:30.553Z,100999.59
2024-05-09T20:26:00.943Z,100999.56
2024-05-09T20:28:28.635Z,101001.28
2024-05-09T20:31:01.709Z,101004.78
2024-05-09T20:33:29.882Z,101013.53
2024-05-09T20:36:01.812Z,101004.69
2024-05-09T20:38:29.896Z,101004.66
2024-05-09T20:40:59.960Z,101004.59
2024-05-09T20:43:27.398Z,101007.16
2024-05-09T20:45:57.459Z,101001.81
2024-05-09T20:48:27.598Z,100997.34
2024-05-09T20:50:58.437Z,100997.31
2024-05-09T20:53:25.876Z,101003.50
2024-05-09T20:55:55.805Z,101007.88
2024-05-09T20:58:23.356Z,101004.31
2024-05-09T21:00:53.667Z,101003.38
2024-05-09T21:03:21.288Z,101004.22
2024-05-09T21:05:54.221Z,101005.97
2024-05-09T21:08:22.767Z,101002.41
2024-05-09T21:10:53.432Z,101004.13
2024-05-09T21:13:21.146Z,100997.91
2024-05-09T21:15:51.533Z,101003.16
2024-05-09T21:18:19.606Z,101004.00
2024-05-09T21:20:49.662Z,101006.56
2024-05-09T21:23:19.649Z,100996.00
2024-05-09T21:25:49.757Z,101000.31
2024-05-09T21:28:17.277Z,100998.53
2024-05-09T21:30:47.319Z,101003.72
2024-05-09T21:33:15.403Z,101013.44
2024-05-09T21:35:46.015Z,101000.09
2024-05-09T21:38:14.637Z,101000.06
2024-05-09T21:40:47.957Z,101000.84
2024-05-09T21:43:15.627Z,100999.06
2024-05-09T21:45:45.950Z,100994.59
2024-05-09T21:48:13.832Z,101001.56
2024-05-09T21:50:44.353Z,100997.13
2024-05-09T21:53:14.977Z,100990.00
2024-05-09T21:55:48.047Z,100990.78
2024-05-09T21:58:16.029Z,100994.25
2024-05-09T22:00:46.668Z,100994.22
2024-05-09T22:03:15.132Z,100988.84
2024-05-09T22:05:45.571Z,100987.91
2024-05-09T22:08:13.412Z,100988.72
2024-05-09T22:10:43.770Z,100986.03
2024-05-09T22:13:15.635Z,100990.38
2024-05-09T22:15:45.861Z,100993.84
2024-05-09T22:18:14.146Z,100992.88
2024-05-09T22:20:46.316Z,100999.00
2024-05-09T22:23:15.243Z,100994.50
2024-05-09T22:25:45.422Z,101006.84
2024-05-09T22:28:16.589Z,101003.22
2024-05-09T22:30:47.708Z,101004.03
2024-05-09T22:33:15.787Z,101002.25
2024-05-09T22:35:47.690Z,101003.97
2024-05-09T22:38:15.117Z,100996.88
2024-05-09T22:40:48.573Z,100995.06
2024-05-09T22:43:24.623Z,101000.28
2024-05-09T22:45:56.388Z,100999.34
2024-05-09T22:48:25.132Z,100996.66
2024-05-09T22:50:56.173Z,100998.38
2024-05-09T22:53:24.676Z,100994.81
2024-05-09T22:55:55.042Z,100998.31
2024-05-09T22:58:25.939Z,100999.19
2024-05-09T23:00:56.270Z,100996.47
2024-05-09T23:03:23.967Z,100990.28
2024-05-09T23:05:54.165Z,100992.91
2024-05-09T23:08:21.947Z,101003.41
2024-05-09T23:10:52.230Z,100992.81
2024-05-09T23:13:20.078Z,100987.47
2024-05-09T23:15:52.943Z,100989.25
2024-05-09T23:18:20.664Z,100986.56
2024-05-09T23:20:52.103Z,100987.44
2024-05-09T23:23:19.822Z,100984.69
2024-05-09T23:25:49.948Z,100986.38
2024-05-09T23:28:20.024Z,100986.28
2024-05-09T23:30:50.190Z,100979.16
2024-05-09T23:33:20.415Z,100983.50
2024-05-09T23:35:47.996Z,100983.38
2024-05-09T23:38:20.923Z,100979.78
2024-05-09T23:40:50.050Z,100971.78
2024-05-09T23:43:20.322Z,100976.13
2024-05-09T23:45:50.544Z,100975.22
2024-05-09T23:48:20.660Z,100965.47
2024-05-09T23:50:48.204Z,100970.69
2024-05-09T23:53:18.614Z,100966.19
2024-05-09T23:55:46.030Z,100964.38
2024-05-09T23:58:16.229Z,100970.47
